This is the latest recevied weather packets stored in our database for station/object ZL1KPB-13. If no packets are shown the sender has not sent any weather packets the latest 10 day(s).
| Time | Temp. | Humidity | Pressure | Rain* | Wind** | Luminosity | Snow |
|---|---|---|---|---|---|---|---|
| 1777620671 | 9.44° C | 76% | 1038.3 hPa | 0 mm | - | - | - |
| 1777618902 | 10.56° C | 73% | 1038.1 hPa | 0 mm | - | - | - |
| 1777617050 | 11.11° C | 73% | 1037.9 hPa | 0 mm | - | - | - |
| 1777609866 | 15° C | 60% | 1037.8 hPa | 0 mm | - | - | - |
| 1777604477 | 18.89° C | 49% | 1038.1 hPa | 0 mm | - | - | - |
| 1777602624 | 18.89° C | 46% | 1038.3 hPa | 0 mm | - | - | - |
| 1777596650 | 17.22° C | 53% | 1039.1 hPa | 0 mm | - | - | - |
| 1777591822 | 16.11° C | 53% | 1040.1 hPa | 0 mm | - | - | - |
| 1777591219 | 16.11° C | 53% | 1040 hPa | 0 mm | - | - | - |
| 1777590676 | 15.56° C | 53% | 1040 hPa | 0 mm | - | - | - |
| 1777590072 | 15.56° C | 53% | 1040 hPa | 0 mm | - | - | - |
| 1777587658 | 15.56° C | 53% | 1040 hPa | 0 mm | - | - | - |
| 1777587055 | 15° C | 52% | 1039.9 hPa | 0 mm | - | - | - |
| 1777585244 | 15° C | 55% | 1039.9 hPa | 0 mm | - | - | - |
| 1777583434 | 13.33° C | 54% | 1039.8 hPa | 0 mm | - | - | - |
| 1777581624 | 12.78° C | 60% | 1039.6 hPa | 0 mm | - | - | - |
| 1777580476 | 9.44° C | 71% | 1039.3 hPa | 0 mm | - | - | - |
| 1777579872 | 8.89° C | 71% | 1039 hPa | 0 mm | - | - | - |
| 1777573233 | 7.22° C | 75% | 1038 hPa | 0 mm | - | - | - |
| 1777572628 | 7.22° C | 75% | 1037.8 hPa | 0 mm | - | - | - |
| 1777572047 | 7.22° C | 75% | 1037.9 hPa | 0 mm | - | - | - |
| 1777570276 | 7.22° C | 73% | 1037.8 hPa | 0 mm | - | - | - |
| 1777569069 | 7.22° C | 72% | 1038 hPa | 0 mm | - | - | - |
| 1777566051 | 7.78° C | 67% | 1038 hPa | 0 mm | - | - | - |
| 1777564844 | 7.78° C | 67% | 1038.2 hPa | 0 mm | - | - | - |
* Rain latest hour (hover to see other rain measurements)
** Current wind speed in m/s (hover to see current wind gust speed)